This is the latest recevied weather packets stored in our database for station/object KD7JB. If no packets are shown the sender has not sent any weather packets the latest 1 day(s).
| Time | Temp. | Humidity | Pressure | Rain* | Wind** | Luminosity | Snow |
|---|---|---|---|---|---|---|---|
| 1778064469 | 15° C | 49% | 1175.1 hPa | 0 mm | 2.68 m/s, 16° | 0 W/m² | - |
| 1778064167 | 14.44° C | 49% | 1175.1 hPa | 0 mm | 2.68 m/s, 348° | 0 W/m² | - |
| 1778063871 | 15° C | 48% | 1175.1 hPa | 0 mm | 2.68 m/s, 351° | 0 W/m² | - |
| 1778063561 | 15° C | 49% | 1174.9 hPa | 0 mm | 3.13 m/s, 348° | 0 W/m² | - |
| 1778063259 | 15° C | 48% | 1175.1 hPa | 0 mm | 2.24 m/s, 350° | 0 W/m² | - |
| 1778062956 | 15° C | 48% | 1174.8 hPa | 0 mm | 2.68 m/s, 8° | 0 W/m² | - |
| 1778062653 | 15° C | 48% | 1174.8 hPa | 0 mm | 2.68 m/s, 359° | 0 W/m² | - |
| 1778062350 | 15° C | 47% | 1174.8 hPa | 0 mm | 3.13 m/s, 359° | 0 W/m² | - |
| 1778062048 | 15° C | 47% | 1174.8 hPa | 0 mm | 2.68 m/s, 6° | 0 W/m² | - |
| 1778061746 | 15° C | 48% | 1174.8 hPa | 0 mm | 3.13 m/s, 2° | 0 W/m² | - |
| 1778061444 | 15° C | 49% | 1174.7 hPa | 0 mm | 2.24 m/s, 6° | 0 W/m² | - |
| 1778061140 | 15° C | 49% | 1174.7 hPa | 0 mm | 2.68 m/s, 6° | 0 W/m² | - |
| 1778060837 | 15° C | 49% | 1174.9 hPa | 0 mm | 2.68 m/s, 347° | 0 W/m² | - |
| 1778060535 | 15° C | 49% | 1174.8 hPa | 0 mm | 2.68 m/s, 353° | 0 W/m² | - |
| 1778060234 | 15° C | 49% | 1174.9 hPa | 0 mm | 2.68 m/s, 341° | 0 W/m² | - |
| 1778059930 | 15° C | 49% | 1174.8 hPa | 0 mm | 1.79 m/s, 5° | 0 W/m² | - |
| 1778059628 | 15° C | 48% | 1174.7 hPa | 0 mm | 3.58 m/s, 349° | 0 W/m² | - |
| 1778059326 | 15° C | 49% | 1174.9 hPa | 0 mm | 2.24 m/s, 1° | 0 W/m² | - |
| 1778059023 | 15° C | 49% | 1174.8 hPa | 0 mm | 2.24 m/s, 354° | 0 W/m² | - |
| 1778058720 | 15° C | 50% | 1174.8 hPa | 0 mm | 2.68 m/s, 356° | 0 W/m² | - |
| 1778058418 | 15° C | 49% | 1174.8 hPa | 0 mm | 2.24 m/s, 358° | 0 W/m² | - |
| 1778058114 | 15.56° C | 49% | 1175.1 hPa | 0 mm | 2.68 m/s, 357° | 0 W/m² | - |
| 1778057811 | 15.56° C | 49% | 1174.8 hPa | 0 mm | 1.79 m/s, 6° | 0 W/m² | - |
| 1778057508 | 15.56° C | 48% | 1174.8 hPa | 0 mm | 2.68 m/s, 355° | 0 W/m² | - |
| 1778057204 | 15.56° C | 50% | 1174.8 hPa | 0 mm | 2.68 m/s, 348° | 0 W/m² | - |
* Rain latest hour (hover to see other rain measurements)
** Current wind speed in m/s (hover to see current wind gust speed)